Time;durP1;ratioP1;P1;durP2;ratioP2;P2;SDS_P1;SDS_P2;PMS_P1;PMS_P2;Temp;Humidity;BMP_temperature;BMP_pressure;BME280_temperature;BME280_humidity;BME280_pressure;Samples;Min_cycle;Max_cycle;Signal;HPM_P1;HPM_P2
2023/09/06 00:01:33;;;;;;;3.07;2.87;;;20.20;99.90;;;;;;4947299;28;20353;-73
2023/09/06 00:03:59;;;;;;;4.10;2.93;;;20.10;99.90;;;;;;4962962;28;20498;-73
2023/09/06 00:06:25;;;;;;;4.50;2.83;;;20.00;99.90;;;;;;4943506;28;20484;-74
2023/09/06 00:08:51;;;;;;;3.47;3.27;;;19.80;99.90;;;;;;4946513;28;20226;-73
2023/09/06 00:11:16;;;;;;;3.00;2.70;;;20.00;99.90;;;;;;4950676;28;20234;-73
2023/09/06 00:13:42;;;;;;;3.53;3.23;;;20.10;99.90;;;;;;4964045;28;21004;-74
2023/09/06 00:16:08;;;;;;;3.30;2.93;;;19.90;99.90;;;;;;4946861;28;20230;-72
2023/09/06 00:18:34;;;;;;;4.50;3.17;;;19.90;99.90;;;;;;4963752;28;20221;-73
2023/09/06 00:20:59;;;;;;;5.40;3.60;;;19.90;99.90;;;;;;4932777;28;20642;-74
2023/09/06 00:23:26;;;;;;;3.07;2.80;;;19.90;99.90;;;;;;4962516;28;20272;-73
2023/09/06 00:25:52;;;;;;;5.40;3.57;;;20.00;99.90;;;;;;4950363;28;20227;-73
2023/09/06 00:28:23;;;;;;;4.47;3.27;;;20.00;99.90;;;;;;4949059;28;20476;-73
2023/09/06 00:30:50;;;;;;;2.73;2.53;;;19.90;99.90;;;;;;4968279;28;20477;-73
2023/09/06 00:33:16;;;;;;;3.40;3.10;;;19.90;99.90;;;;;;4949696;28;21167;-71
2023/09/06 00:35:43;;;;;;;2.90;2.60;;;19.80;99.90;;;;;;4952272;28;20473;-73
2023/09/06 00:38:10;;;;;;;3.67;3.37;;;19.90;99.90;;;;;;4947664;28;20476;-74
2023/09/06 00:40:37;;;;;;;3.70;3.40;;;19.90;99.90;;;;;;4953243;28;20837;-74
2023/09/06 00:43:05;;;;;;;4.63;3.40;;;20.00;99.90;;;;;;4949788;28;20532;-74
2023/09/06 00:45:45;;;;;;;3.90;3.50;;;20.00;99.90;;;;;;4963771;28;21019;-73
2023/09/06 00:48:26;;;;;;;4.60;3.53;;;19.90;99.90;;;;;;4965517;28;20481;-73
2023/09/06 00:50:56;;;;;;;3.43;3.17;;;19.90;99.90;;;;;;4948877;28;20484;-74
2023/09/06 00:53:24;;;;;;;3.17;2.87;;;19.90;99.90;;;;;;4950196;28;20492;-73
2023/09/06 00:55:50;;;;;;;3.37;3.07;;;19.80;99.90;;;;;;4939483;28;20596;-73
2023/09/06 00:58:18;;;;;;;5.83;3.10;;;19.80;99.90;;;;;;4950463;28;20473;-73
2023/09/06 01:00:49;;;;;;;3.50;3.20;;;19.80;99.90;;;;;;4949254;28;20572;-73
2023/09/06 01:03:16;;;;;;;3.93;3.50;;;19.70;99.90;;;;;;4966979;28;20568;-74
2023/09/06 01:05:49;;;;;;;3.70;3.03;;;19.70;99.90;;;;;;4948532;28;20485;-73
2023/09/06 01:08:24;;;;;;;3.10;2.80;;;19.60;99.90;;;;;;4946784;28;20571;-73
2023/09/06 01:10:50;;;;;;;5.10;3.20;;;19.60;99.90;;;;;;4951622;28;20977;-73
2023/09/06 01:13:16;;;;;;;3.83;3.50;;;19.60;99.90;;;;;;4950870;28;20478;-74
2023/09/06 01:15:44;;;;;;;4.17;2.90;;;19.60;99.90;;;;;;4950405;28;20230;-73
2023/09/06 01:18:12;;;;;;;3.37;3.10;;;19.60;99.90;;;;;;4966420;28;20581;-72
2023/09/06 01:20:43;;;;;;;3.33;3.03;;;19.60;99.90;;;;;;4953490;28;20473;-73
2023/09/06 01:23:27;;;;;;;4.73;3.73;;;19.50;99.90;;;;;;4949568;28;20589;-74
2023/09/06 01:25:54;;;;;;;4.10;3.40;;;19.50;99.90;;;;;;4936381;28;20525;-73
2023/09/06 01:28:20;;;;;;;3.97;3.43;;;19.50;99.90;;;;;;4965512;28;20465;-74
2023/09/06 01:30:47;;;;;;;3.27;2.97;;;19.50;99.90;;;;;;4932157;28;20476;-74
2023/09/06 01:33:16;;;;;;;5.07;3.30;;;19.50;99.90;;;;;;4964510;28;20521;-72
2023/09/06 01:35:41;;;;;;;3.50;3.00;;;19.50;99.90;;;;;;4964108;28;21180;-72
2023/09/06 01:38:07;;;;;;;3.67;3.37;;;19.20;99.90;;;;;;4965438;28;20482;-72
2023/09/06 01:40:33;;;;;;;4.10;3.70;;;19.10;99.90;;;;;;4951880;28;20226;-72
2023/09/06 01:42:58;;;;;;;4.10;3.70;;;19.20;99.90;;;;;;4965972;28;20230;-73
2023/09/06 01:45:24;;;;;;;4.73;3.20;;;19.20;99.90;;;;;;4964091;28;20276;-73
2023/09/06 01:47:50;;;;;;;4.07;2.80;;;19.20;99.90;;;;;;4944642;28;20872;-72
2023/09/06 01:50:19;;;;;;;3.47;3.00;;;19.20;99.90;;;;;;4944404;28;20258;-73
2023/09/06 01:52:45;;;;;;;3.97;2.93;;;19.10;99.90;;;;;;4966320;28;20242;-72
2023/09/06 01:55:12;;;;;;;3.43;3.13;;;19.00;99.90;;;;;;4946372;28;20498;-73
2023/09/06 01:57:38;;;;;;;4.23;3.47;;;19.10;99.90;;;;;;4964909;28;21037;-73
2023/09/06 02:02:50;;;;;;;3.30;2.97;;;19.10;99.90;;;;;;4949107;28;20478;-73
2023/09/06 02:05:16;;;;;;;4.33;3.80;;;19.10;99.90;;;;;;4927663;28;20523;-72
2023/09/06 02:07:42;;;;;;;3.30;3.00;;;19.10;99.90;;;;;;4965156;28;20588;-72
2023/09/06 02:10:08;;;;;;;3.47;3.03;;;19.10;99.90;;;;;;4956173;28;20492;-73
2023/09/06 02:12:34;;;;;;;3.77;3.40;;;19.10;99.90;;;;;;4957712;28;20476;-74
2023/09/06 02:15:00;;;;;;;3.50;3.20;;;19.10;99.90;;;;;;4949635;28;20466;-73
2023/09/06 02:17:26;;;;;;;4.60;3.30;;;19.10;99.90;;;;;;4929617;28;20226;-72
2023/09/06 02:19:52;;;;;;;3.47;3.17;;;19.10;99.90;;;;;;4952619;28;20230;-73
2023/09/06 02:22:18;;;;;;;3.53;3.23;;;19.10;99.90;;;;;;4950971;28;20652;-73
2023/09/06 02:24:44;;;;;;;5.80;2.67;;;19.00;99.90;;;;;;4935269;28;20249;-73
2023/09/06 02:27:12;;;;;;;3.43;3.10;;;19.00;99.90;;;;;;4928565;28;20235;-73
2023/09/06 02:29:39;;;;;;;3.73;2.90;;;19.00;99.90;;;;;;4933141;28;20223;-73
2023/09/06 02:32:05;;;;;;;3.80;3.40;;;19.00;99.90;;;;;;4963731;28;20486;-72
2023/09/06 02:34:31;;;;;;;3.37;3.07;;;19.00;99.90;;;;;;4963209;28;20513;-73
2023/09/06 02:36:56;;;;;;;3.23;3.03;;;18.90;99.90;;;;;;4947399;28;20317;-73
2023/09/06 02:39:25;;;;;;;2.80;2.60;;;18.90;99.90;;;;;;4963638;28;20331;-73
2023/09/06 02:41:52;;;;;;;6.93;3.67;;;18.90;99.90;;;;;;4942836;28;20349;-73
2023/09/06 02:44:17;;;;;;;4.63;3.40;;;18.90;99.90;;;;;;4945792;28;20465;-73
2023/09/06 02:46:43;;;;;;;4.13;3.57;;;18.90;99.90;;;;;;4964194;28;20998;-73
2023/09/06 02:49:13;;;;;;;3.60;3.30;;;18.90;99.90;;;;;;4946917;28;20374;-73
2023/09/06 02:51:42;;;;;;;3.60;3.33;;;18.90;99.90;;;;;;4945755;28;20494;-73
2023/09/06 02:54:12;;;;;;;3.77;3.30;;;18.80;99.90;;;;;;4936054;28;20487;-73
2023/09/06 02:56:37;;;;;;;6.43;3.47;;;18.80;99.90;;;;;;4939163;28;20475;-73
2023/09/06 02:59:07;;;;;;;3.13;2.93;;;18.80;99.90;;;;;;4939414;28;20496;-72
2023/09/06 03:01:35;;;;;;;6.00;3.40;;;18.70;99.90;;;;;;4916908;28;20264;-73
2023/09/06 03:04:06;;;;;;;3.43;3.17;;;18.70;99.90;;;;;;4926666;28;20465;-73
2023/09/06 03:06:33;;;;;;;5.50;3.17;;;18.70;99.90;;;;;;4950534;28;20563;-73
2023/09/06 03:09:06;;;;;;;4.80;3.53;;;18.70;99.90;;;;;;4947990;28;20991;-72
2023/09/06 03:11:32;;;;;;;6.90;3.27;;;18.70;99.90;;;;;;4932817;28;20583;-73
2023/09/06 03:13:58;;;;;;;3.90;3.27;;;18.60;99.90;;;;;;4957778;28;20605;-73
2023/09/06 03:16:24;;;;;;;3.50;3.00;;;18.60;99.90;;;;;;4954156;28;20220;-71
2023/09/06 03:18:52;;;;;;;4.20;3.30;;;18.60;99.90;;;;;;4944180;28;20569;-73
2023/09/06 03:21:19;;;;;;;3.73;2.63;;;18.60;99.90;;;;;;4952822;28;20469;-73
2023/09/06 03:23:45;;;;;;;3.93;3.50;;;18.60;99.90;;;;;;4922856;28;20466;-73
2023/09/06 03:26:12;;;;;;;4.57;3.43;;;18.60;99.90;;;;;;4941665;28;20520;-73
2023/09/06 03:28:40;;;;;;;4.87;3.10;;;18.50;99.90;;;;;;4945039;28;20459;-73
2023/09/06 03:31:12;;;;;;;2.70;2.50;;;18.50;99.90;;;;;;4956764;28;20520;-72
2023/09/06 03:33:41;;;;;;;3.60;3.20;;;18.50;99.90;;;;;;4919527;28;20469;-73
2023/09/06 03:36:08;;;;;;;3.90;3.30;;;18.50;99.90;;;;;;4956930;28;20569;-74
2023/09/06 03:38:36;;;;;;;4.40;3.13;;;18.50;99.90;;;;;;4922613;28;20481;-73
2023/09/06 03:41:07;;;;;;;3.53;3.23;;;18.40;99.90;;;;;;4938970;28;20470;-72
2023/09/06 03:43:33;;;;;;;3.80;3.40;;;18.40;99.90;;;;;;4955118;28;20476;-73
2023/09/06 03:46:04;;;;;;;3.13;2.90;;;18.40;99.90;;;;;;4948059;28;20477;-72
2023/09/06 03:48:30;;;;;;;2.93;2.73;;;18.30;99.90;;;;;;4954613;28;20660;-72
2023/09/06 03:50:59;;;;;;;3.73;3.40;;;18.20;99.90;;;;;;4954791;28;21071;-74
2023/09/06 03:53:25;;;;;;;3.20;2.90;;;18.20;99.90;;;;;;4922938;28;20227;-74
2023/09/06 03:55:57;;;;;;;4.10;3.27;;;18.20;99.90;;;;;;4956146;28;20481;-72
2023/09/06 03:58:30;;;;;;;3.47;3.17;;;18.20;99.90;;;;;;4935315;28;20485;-73
2023/09/06 04:00:56;;;;;;;4.30;2.90;;;18.20;99.90;;;;;;4945856;28;20500;-72
2023/09/06 04:03:28;;;;;;;3.60;3.07;;;18.10;99.90;;;;;;4939809;28;20567;-73
2023/09/06 04:05:55;;;;;;;3.73;2.97;;;18.10;99.90;;;;;;4959843;28;20569;-74
2023/09/06 04:08:25;;;;;;;5.33;3.10;;;18.20;99.90;;;;;;4955602;28;20352;-72
2023/09/06 04:10:52;;;;;;;3.40;3.10;;;18.10;99.90;;;;;;4944845;28;20465;-73
2023/09/06 04:13:18;;;;;;;3.47;3.20;;;18.10;99.90;;;;;;4940647;28;20492;-73
2023/09/06 04:15:44;;;;;;;4.13;3.53;;;18.10;99.90;;;;;;4955278;28;20242;-72
2023/09/06 04:18:11;;;;;;;7.27;3.07;;;18.00;99.90;;;;;;4943538;28;20477;-72
2023/09/06 04:20:39;;;;;;;6.37;3.60;;;18.10;99.90;;;;;;4921246;28;20306;-73
2023/09/06 04:23:11;;;;;;;4.10;3.30;;;18.00;99.90;;;;;;4945588;28;20979;-72
2023/09/06 04:25:44;;;;;;;3.07;2.83;;;18.00;99.90;;;;;;4958403;28;20473;-72
2023/09/06 04:28:15;;;;;;;4.00;3.43;;;18.00;99.90;;;;;;4928428;28;20552;-72
2023/09/06 04:30:42;;;;;;;4.27;3.23;;;18.00;99.90;;;;;;4925300;28;21702;-73
2023/09/06 04:33:12;;;;;;;8.17;3.50;;;18.00;99.90;;;;;;4942603;28;20478;-73
2023/09/06 04:35:44;;;;;;;3.67;3.33;;;18.00;99.90;;;;;;4926872;28;20857;-72
2023/09/06 04:38:12;;;;;;;4.03;3.23;;;18.00;99.90;;;;;;4957604;28;20499;-73
2023/09/06 04:40:39;;;;;;;3.73;3.40;;;18.00;99.90;;;;;;4942694;28;20462;-73
2023/09/06 04:43:07;;;;;;;4.60;3.40;;;18.00;99.90;;;;;;4949885;28;20564;-73
2023/09/06 04:45:33;;;;;;;3.60;3.30;;;17.90;99.90;;;;;;4956875;28;20961;-73
2023/09/06 04:47:59;;;;;;;4.20;3.77;;;17.90;99.90;;;;;;4945225;28;20478;-73
2023/09/06 04:50:25;;;;;;;4.13;3.30;;;17.90;99.90;;;;;;4957886;28;20529;-73
2023/09/06 04:52:52;;;;;;;3.30;3.00;;;17.80;99.90;;;;;;4945597;28;20513;-73
2023/09/06 04:55:20;;;;;;;5.10;3.60;;;17.80;99.90;;;;;;4955682;28;20473;-72
2023/09/06 04:57:49;;;;;;;4.80;3.63;;;17.80;99.90;;;;;;4953954;28;20492;-72
2023/09/06 05:00:17;;;;;;;5.87;3.47;;;17.80;99.90;;;;;;4944425;28;20474;-72
2023/09/06 05:02:46;;;;;;;10.03;3.50;;;17.80;99.90;;;;;;4961931;28;20477;-72
2023/09/06 05:05:16;;;;;;;3.87;3.50;;;17.80;99.90;;;;;;4928155;28;20481;-72
2023/09/06 05:07:42;;;;;;;3.47;3.17;;;17.80;99.90;;;;;;4961218;28;20485;-72
2023/09/06 05:10:11;;;;;;;6.40;4.50;;;17.80;99.90;;;;;;4947062;28;20482;-73
2023/09/06 05:12:38;;;;;;;4.20;3.80;;;17.80;99.90;;;;;;4957582;28;20288;-73
2023/09/06 05:15:05;;;;;;;4.97;3.70;;;17.70;99.90;;;;;;4944868;28;20542;-72
2023/09/06 05:17:32;;;;;;;4.13;3.30;;;17.70;99.90;;;;;;4959287;28;20473;-73
2023/09/06 05:20:32;;;;;;;3.77;3.33;;;17.70;99.90;;;;;;4951621;28;20524;-72
2023/09/06 05:23:05;;;;;;;7.50;3.77;;;17.70;99.90;;;;;;4932549;28;20602;-72
2023/09/06 05:25:33;;;;;;;4.60;3.40;;;17.70;99.90;;;;;;4942274;28;20514;-72
2023/09/06 05:28:04;;;;;;;4.17;3.33;;;17.80;99.90;;;;;;4954214;28;20469;-74
2023/09/06 05:30:34;;;;;;;4.87;3.13;;;17.70;99.90;;;;;;4938400;28;20467;-73
2023/09/06 05:33:02;;;;;;;4.33;3.30;;;17.70;99.90;;;;;;4949060;28;20486;-72
2023/09/06 05:35:27;;;;;;;6.50;3.93;;;17.70;99.90;;;;;;4941263;28;20482;-73
2023/09/06 05:37:54;;;;;;;3.20;3.00;;;17.70;99.90;;;;;;4948809;28;20226;-73
2023/09/06 05:40:23;;;;;;;5.10;3.80;;;17.70;99.90;;;;;;4941056;28;21104;-72
2023/09/06 05:42:52;;;;;;;3.67;3.17;;;17.70;99.90;;;;;;4943562;28;20235;-73
2023/09/06 05:45:21;;;;;;;4.27;3.87;;;17.70;99.90;;;;;;4954634;28;20470;-72
2023/09/06 05:47:47;;;;;;;4.70;3.13;;;17.70;99.90;;;;;;4942964;28;20560;-73
2023/09/06 05:50:13;;;;;;;3.70;3.37;;;17.70;99.90;;;;;;4954702;28;20489;-73
2023/09/06 05:52:38;;;;;;;3.47;3.17;;;17.70;99.90;;;;;;4943489;28;20477;-73
2023/09/06 05:55:04;;;;;;;4.13;3.70;;;17.70;99.90;;;;;;4947425;28;20609;-73
2023/09/06 05:57:32;;;;;;;5.10;3.53;;;17.80;99.90;;;;;;4938895;28;20218;-74
2023/09/06 05:59:58;;;;;;;3.30;3.00;;;17.80;99.90;;;;;;4947736;28;20623;-73
2023/09/06 06:02:24;;;;;;;3.57;3.27;;;17.80;99.90;;;;;;4955476;28;20466;-73
2023/09/06 06:04:52;;;;;;;4.20;3.40;;;17.80;99.90;;;;;;4943417;28;20474;-73
2023/09/06 06:07:17;;;;;;;3.13;2.67;;;17.80;99.90;;;;;;4936090;28;20469;-73
2023/09/06 06:09:44;;;;;;;3.97;3.57;;;17.90;99.90;;;;;;4938323;28;20911;-72
2023/09/06 06:12:10;;;;;;;7.40;3.70;;;17.90;99.90;;;;;;4949239;28;20229;-72
2023/09/06 06:14:36;;;;;;;3.93;3.50;;;17.90;99.90;;;;;;4940597;28;20558;-72
2023/09/06 06:17:05;;;;;;;4.60;3.17;;;17.90;99.90;;;;;;4939917;28;20564;-73
2023/09/06 06:19:33;;;;;;;4.10;3.70;;;17.90;99.90;;;;;;4955238;28;20482;-73
2023/09/06 06:22:01;;;;;;;3.63;3.33;;;17.90;99.90;;;;;;4943298;28;21093;-71
2023/09/06 06:24:27;;;;;;;6.60;3.90;;;18.00;99.90;;;;;;4941524;28;20466;-73
2023/09/06 06:26:52;;;;;;;4.90;4.07;;;18.00;99.90;;;;;;4939171;28;21156;-72
2023/09/06 06:29:18;;;;;;;6.77;4.43;;;18.00;99.90;;;;;;4933785;28;21016;-73
2023/09/06 06:31:44;;;;;;;7.20;4.00;;;18.00;99.90;;;;;;4943510;28;20242;-72
2023/09/06 06:34:10;;;;;;;5.93;3.60;;;18.00;99.90;;;;;;4943254;28;20227;-73
2023/09/06 06:36:36;;;;;;;3.73;3.40;;;18.10;99.90;;;;;;4945018;28;20687;-72
2023/09/06 06:39:02;;;;;;;4.20;3.53;;;18.10;99.90;;;;;;4954992;28;20219;-73
2023/09/06 06:41:28;;;;;;;4.63;4.00;;;18.10;99.90;;;;;;4952032;28;20223;-72
2023/09/06 06:43:53;;;;;;;4.50;3.50;;;18.20;99.90;;;;;;4955861;28;20481;-73
2023/09/06 06:46:27;;;;;;;4.53;4.00;;;18.20;99.90;;;;;;4937854;28;20424;-72
2023/09/06 06:48:53;;;;;;;4.07;3.43;;;18.30;99.90;;;;;;4943912;28;20226;-73
2023/09/06 06:51:19;;;;;;;4.23;3.50;;;18.30;99.90;;;;;;4939742;28;20505;-73
2023/09/06 06:53:44;;;;;;;4.17;3.17;;;18.40;99.90;;;;;;4940922;28;20223;-73
2023/09/06 06:56:10;;;;;;;5.30;3.50;;;18.40;99.90;;;;;;4908209;28;20222;-74
2023/09/06 06:58:36;;;;;;;4.47;3.90;;;18.50;99.90;;;;;;4887166;28;20257;-74
2023/09/06 07:01:01;;;;;;;8.53;4.43;;;18.50;99.90;;;;;;4927851;28;20819;-73
2023/09/06 07:03:28;;;;;;;4.90;3.60;;;18.60;99.90;;;;;;4950140;28;20253;-73
2023/09/06 07:05:55;;;;;;;6.87;3.80;;;18.70;99.90;;;;;;4953324;28;20238;-73
2023/09/06 07:08:23;;;;;;;5.30;3.80;;;18.80;99.90;;;;;;4933226;28;21330;-72
2023/09/06 07:10:49;;;;;;;3.97;3.57;;;18.80;99.90;;;;;;4920629;28;20506;-73
2023/09/06 07:13:15;;;;;;;5.40;4.33;;;18.90;99.90;;;;;;4937486;28;20491;-72
2023/09/06 07:15:42;;;;;;;7.63;4.13;;;19.00;99.90;;;;;;4930798;28;20234;-74
2023/09/06 07:18:08;;;;;;;7.23;4.20;;;19.00;99.90;;;;;;4934449;28;20791;-74
2023/09/06 07:20:35;;;;;;;6.80;4.57;;;19.10;99.90;;;;;;4947413;28;20482;-73
2023/09/06 07:23:01;;;;;;;5.30;4.23;;;19.20;99.90;;;;;;4921401;28;20477;-74
2023/09/06 07:25:27;;;;;;;14.13;4.90;;;19.30;99.90;;;;;;4947941;28;20516;-74
2023/09/06 07:27:53;;;;;;;4.47;4.10;;;19.40;99.90;;;;;;4935464;28;20231;-73
2023/09/06 07:30:19;;;;;;;6.43;4.57;;;19.50;99.90;;;;;;4932421;28;21125;-73
2023/09/06 07:32:45;;;;;;;5.77;4.20;;;19.60;99.90;;;;;;4937540;28;20565;-73
2023/09/06 07:35:11;;;;;;;5.07;4.30;;;19.70;99.90;;;;;;4936074;28;20219;-73
2023/09/06 07:37:37;;;;;;;4.40;3.73;;;19.80;99.90;;;;;;4944329;28;20291;-73
2023/09/06 07:40:03;;;;;;;4.13;3.77;;;19.90;99.90;;;;;;4915216;28;20847;-73
2023/09/06 07:42:29;;;;;;;4.77;4.20;;;19.90;99.90;;;;;;4929913;28;20224;-73
2023/09/06 07:44:56;;;;;;;7.90;3.90;;;20.00;99.90;;;;;;4948611;28;20488;-73
2023/09/06 07:47:22;;;;;;;5.63;4.23;;;20.20;99.90;;;;;;4911469;28;20261;-73
2023/09/06 07:49:47;;;;;;;3.57;3.27;;;20.40;99.90;;;;;;4939705;28;20469;-74
2023/09/06 07:52:13;;;;;;;4.93;4.13;;;20.40;99.90;;;;;;4935567;28;20601;-73
2023/09/06 07:54:39;;;;;;;5.17;4.67;;;20.40;99.90;;;;;;4940283;28;20830;-73
2023/09/06 07:57:04;;;;;;;4.80;4.40;;;20.50;99.90;;;;;;4955556;28;20244;-74
2023/09/06 07:59:30;;;;;;;6.57;4.50;;;20.70;99.90;;;;;;4935812;28;20321;-73
2023/09/06 08:01:56;;;;;;;6.93;4.43;;;20.70;99.90;;;;;;4939433;28;20329;-73
2023/09/06 08:04:21;;;;;;;5.03;4.17;;;20.80;99.90;;;;;;4945429;28;20232;-73
2023/09/06 08:06:47;;;;;;;5.47;4.97;;;21.00;99.90;;;;;;4939577;28;20313;-74
2023/09/06 08:09:13;;;;;;;5.70;4.30;;;21.00;99.90;;;;;;4949271;28;20297;-73
2023/09/06 08:11:39;;;;;;;5.63;4.60;;;20.90;99.90;;;;;;4923775;28;20722;-73
2023/09/06 08:14:05;;;;;;;4.70;4.30;;;20.90;99.90;;;;;;4940967;28;20466;-74
2023/09/06 08:16:31;;;;;;;5.00;4.57;;;21.10;99.90;;;;;;4938389;28;20231;-73
2023/09/06 08:18:57;;;;;;;4.90;4.17;;;21.20;99.90;;;;;;4941171;28;20214;-72
2023/09/06 08:21:22;;;;;;;4.83;4.30;;;21.30;99.90;;;;;;4943062;28;20242;-74
2023/09/06 08:23:48;;;;;;;5.40;4.63;;;21.50;99.90;;;;;;4960360;28;20238;-73
2023/09/06 08:26:14;;;;;;;5.07;4.60;;;21.50;99.90;;;;;;4933770;28;20230;-74
2023/09/06 08:28:39;;;;;;;6.20;4.10;;;21.50;99.90;;;;;;4939134;28;20227;-73
2023/09/06 08:31:05;;;;;;;5.20;4.67;;;21.60;99.90;;;;;;4937422;28;20226;-73
2023/09/06 08:33:32;;;;;;;4.80;4.40;;;21.80;99.90;;;;;;4936878;28;20245;-72
2023/09/06 08:35:58;;;;;;;5.73;4.27;;;21.90;99.90;;;;;;4948542;28;20234;-74
2023/09/06 08:38:24;;;;;;;4.37;4.00;;;22.00;99.90;;;;;;4940359;28;20475;-73
2023/09/06 08:40:50;;;;;;;4.90;4.40;;;22.10;99.90;;;;;;4942367;28;20940;-74
2023/09/06 08:43:18;;;;;;;7.20;4.43;;;22.20;99.90;;;;;;4941756;28;20234;-73
2023/09/06 08:45:46;;;;;;;6.00;4.30;;;22.30;99.90;;;;;;4950721;28;20269;-74
2023/09/06 08:48:12;;;;;;;4.77;4.23;;;22.40;99.90;;;;;;4939418;28;20489;-75
2023/09/06 08:50:39;;;;;;;5.33;4.83;;;22.40;99.90;;;;;;4960018;28;20541;-74
2023/09/06 08:53:05;;;;;;;7.30;4.10;;;22.40;99.90;;;;;;4944790;28;20245;-73
2023/09/06 08:55:32;;;;;;;5.97;4.50;;;22.50;99.90;;;;;;4935899;28;20592;-73
2023/09/06 08:57:59;;;;;;;5.23;4.73;;;22.60;99.90;;;;;;4961276;28;20478;-74
2023/09/06 09:00:24;;;;;;;4.60;4.20;;;22.60;99.90;;;;;;4946185;28;20477;-72
2023/09/06 09:02:51;;;;;;;4.70;4.30;;;22.60;99.90;;;;;;4926165;28;21098;-74
2023/09/06 09:05:19;;;;;;;5.20;4.50;;;22.60;99.90;;;;;;4963813;28;20225;-74
2023/09/06 09:07:46;;;;;;;7.37;4.57;;;22.70;99.90;;;;;;4948830;28;20483;-74
2023/09/06 09:10:13;;;;;;;4.33;4.00;;;22.80;99.90;;;;;;4947009;28;20946;-74
2023/09/06 09:12:39;;;;;;;4.83;4.33;;;22.90;99.90;;;;;;4945111;28;20473;-74
2023/09/06 09:15:07;;;;;;;4.50;4.20;;;22.90;99.90;;;;;;4943958;28;20587;-75
2023/09/06 09:17:34;;;;;;;9.90;4.37;;;23.00;99.90;;;;;;4944660;28;20481;-72
2023/09/06 09:20:00;;;;;;;6.57;4.10;;;23.20;99.90;;;;;;4942473;28;20986;-74
2023/09/06 09:22:31;;;;;;;4.43;4.00;;;23.40;99.90;;;;;;4922012;28;20487;-74
2023/09/06 09:25:04;;;;;;;6.77;4.43;;;23.60;99.90;;;;;;4943927;28;20500;-73
2023/09/06 09:27:32;;;;;;;5.33;4.73;;;23.60;99.90;;;;;;4947022;28;21091;-73
2023/09/06 09:30:04;;;;;;;5.93;4.20;;;23.50;99.90;;;;;;4932459;28;20481;-74
2023/09/06 09:32:30;;;;;;;4.77;3.80;;;23.40;99.90;;;;;;4962889;28;20559;-73
2023/09/06 09:34:56;;;;;;;4.67;4.10;;;23.50;99.90;;;;;;4944443;28;20478;-74
2023/09/06 09:37:22;;;;;;;5.77;4.67;;;23.70;99.90;;;;;;4956756;28;20227;-73
2023/09/06 09:39:48;;;;;;;4.93;4.40;;;23.90;99.90;;;;;;4952074;28;21014;-74
2023/09/06 09:42:15;;;;;;;4.60;4.20;;;23.90;99.90;;;;;;4947707;28;21514;-73
2023/09/06 09:44:41;;;;;;;6.47;4.20;;;24.00;99.90;;;;;;4946505;28;20465;-75
2023/09/06 09:47:16;;;;;;;4.47;4.07;;;24.10;99.90;;;;;;4921906;28;20473;-74
2023/09/06 09:49:42;;;;;;;4.37;3.97;;;23.90;99.90;;;;;;4934590;28;20580;-74
2023/09/06 09:52:14;;;;;;;4.40;4.00;;;24.00;99.90;;;;;;4923107;28;20496;-74
2023/09/06 09:54:42;;;;;;;4.87;4.47;;;24.30;99.90;;;;;;4922088;28;20556;-74
2023/09/06 09:57:09;;;;;;;5.30;4.50;;;24.30;99.90;;;;;;4921214;28;20576;-74
2023/09/06 09:59:38;;;;;;;5.70;4.60;;;24.30;99.90;;;;;;4934667;28;21080;-73
2023/09/06 10:02:05;;;;;;;4.67;4.20;;;24.30;99.90;;;;;;4904295;28;20544;-74
2023/09/06 10:04:36;;;;;;;5.07;4.60;;;24.40;99.90;;;;;;4920356;28;20477;-74
2023/09/06 10:07:04;;;;;;;5.10;4.60;;;24.40;99.90;;;;;;4936581;28;20568;-74
2023/09/06 10:09:32;;;;;;;5.20;4.70;;;24.30;99.90;;;;;;4919021;28;20569;-75
2023/09/06 10:12:00;;;;;;;4.77;4.33;;;24.50;99.90;;;;;;4921667;28;20488;-74
2023/09/06 10:14:26;;;;;;;6.20;4.27;;;24.50;99.90;;;;;;4903742;28;21265;-74
2023/09/06 10:16:52;;;;;;;4.90;4.50;;;24.80;99.90;;;;;;4914110;28;20473;-75
2023/09/06 10:19:20;;;;;;;4.50;4.13;;;24.80;99.90;;;;;;4942355;28;20553;-74
2023/09/06 10:21:47;;;;;;;6.40;5.23;;;24.60;99.90;;;;;;4933797;28;20477;-74
2023/09/06 10:24:18;;;;;;;5.20;4.70;;;24.70;99.90;;;;;;4947089;28;20453;-74
2023/09/06 10:26:46;;;;;;;5.20;4.80;;;24.80;99.90;;;;;;4946231;28;20517;-73
2023/09/06 10:29:16;;;;;;;5.30;4.80;;;25.00;99.90;;;;;;4943563;28;21902;-73
2023/09/06 10:31:50;;;;;;;5.17;4.67;;;25.10;99.90;;;;;;4930603;28;20624;-74
2023/09/06 10:34:17;;;;;;;5.13;4.63;;;25.20;99.90;;;;;;4959490;28;20549;-74
2023/09/06 10:36:56;;;;;;;6.33;4.80;;;25.10;99.90;;;;;;4944651;28;20477;-74
2023/09/06 10:39:27;;;;;;;4.87;4.40;;;25.00;99.90;;;;;;4957080;28;20587;-74
2023/09/06 10:42:11;;;;;;;5.37;4.87;;;25.10;99.90;;;;;;4943719;28;20470;-74
2023/09/06 10:44:55;;;;;;;5.60;4.70;;;25.10;99.90;;;;;;4958170;28;21294;-73
2023/09/06 10:47:33;;;;;;;5.00;4.60;;;25.20;99.90;;;;;;4943823;28;20515;-74
2023/09/06 10:50:20;;;;;;;5.40;5.00;;;25.40;99.90;;;;;;4923912;28;20561;-74
2023/09/06 10:53:11;;;;;;;6.00;5.20;;;25.40;99.90;;;;;;4928029;28;20477;-74
2023/09/06 10:55:46;;;;;;;6.93;4.27;;;25.70;99.90;;;;;;4937822;28;20991;-74
2023/09/06 10:58:12;;;;;;;4.80;4.27;;;25.80;99.90;;;;;;4942746;28;20488;-74
2023/09/06 11:00:40;;;;;;;4.40;4.07;;;25.60;99.90;;;;;;4943312;28;20458;-73
2023/09/06 11:03:06;;;;;;;6.43;5.27;;;25.70;99.90;;;;;;4960745;28;21117;-73
2023/09/06 11:05:39;;;;;;;5.23;4.70;;;26.10;99.90;;;;;;4949912;28;20551;-74
2023/09/06 11:08:08;;;;;;;6.10;4.57;;;26.40;99.90;;;;;;4957987;28;20247;-75
2023/09/06 11:10:35;;;;;;;5.17;4.77;;;26.50;99.90;;;;;;4958516;28;21134;-74
2023/09/06 11:13:12;;;;;;;4.50;4.10;;;26.50;99.90;;;;;;4944822;28;20477;-74
2023/09/06 11:15:39;;;;;;;5.47;4.90;;;26.30;99.90;;;;;;4959070;28;20573;-74
2023/09/06 11:18:05;;;;;;;5.27;4.77;;;26.20;99.90;;;;;;4944658;28;20473;-72
2023/09/06 11:20:32;;;;;;;4.93;4.50;;;26.20;99.90;;;;;;4944794;28;20624;-74
2023/09/06 11:23:00;;;;;;;4.60;4.20;;;26.40;99.90;;;;;;4942585;28;20477;-72
2023/09/06 11:25:28;;;;;;;4.80;4.40;;;26.40;99.90;;;;;;4942292;28;20485;-74
2023/09/06 11:27:55;;;;;;;5.00;4.60;;;26.40;99.90;;;;;;4961086;28;20548;-74
2023/09/06 11:30:23;;;;;;;4.60;4.20;;;26.40;99.90;;;;;;4938425;28;20902;-74
2023/09/06 11:32:53;;;;;;;5.23;4.77;;;26.30;99.90;;;;;;4946244;28;20796;-73
2023/09/06 11:35:22;;;;;;;4.47;4.03;;;26.40;99.90;;;;;;4945713;28;20547;-74
2023/09/06 11:37:51;;;;;;;5.43;4.77;;;26.60;99.90;;;;;;4935985;28;20476;-74
2023/09/06 11:40:21;;;;;;;5.00;4.30;;;26.60;99.90;;;;;;4949101;28;20502;-73
2023/09/06 11:43:02;;;;;;;4.60;4.20;;;26.70;99.90;;;;;;4946679;28;20489;-74
2023/09/06 11:45:31;;;;;;;4.60;4.20;;;26.60;99.90;;;;;;4942930;28;21200;-74
2023/09/06 11:47:59;;;;;;;4.50;4.10;;;26.80;99.70;;;;;;4944271;28;20492;-73
2023/09/06 11:50:29;;;;;;;4.43;4.07;;;26.80;99.60;;;;;;4948475;28;20875;-74
2023/09/06 11:52:58;;;;;;;4.97;4.50;;;26.80;99.50;;;;;;4950479;28;20928;-75
2023/09/06 11:55:26;;;;;;;5.23;4.83;;;26.70;99.20;;;;;;4943882;28;21332;-73
2023/09/06 11:57:52;;;;;;;4.27;3.93;;;26.60;99.10;;;;;;4945299;28;20519;-73
2023/09/06 12:00:28;;;;;;;5.07;4.67;;;26.40;99.30;;;;;;4941317;28;20473;-75
2023/09/06 12:03:16;;;;;;;5.00;4.60;;;26.50;99.60;;;;;;4946288;28;20477;-74
2023/09/06 12:05:50;;;;;;;4.90;4.40;;;26.60;99.30;;;;;;4942383;28;20551;-75
2023/09/06 12:08:19;;;;;;;4.27;3.93;;;26.90;99.40;;;;;;4933566;28;20484;-75
2023/09/06 12:10:54;;;;;;;5.03;4.55;;;27.00;98.90;;;;;;4943058;28;20473;-74
2023/09/06 12:13:34;;;;;;;4.00;3.57;;;26.80;98.60;;;;;;4942880;28;20233;-72
2023/09/06 12:16:02;;;;;;;5.10;4.63;;;26.90;99.00;;;;;;4939496;28;20484;-73
2023/09/06 12:18:28;;;;;;;5.57;5.00;;;27.00;99.20;;;;;;4941443;28;20466;-75
2023/09/06 12:20:58;;;;;;;4.37;4.07;;;27.00;98.90;;;;;;4943550;28;21096;-74
2023/09/06 12:23:34;;;;;;;4.40;4.00;;;26.80;99.10;;;;;;4945347;28;20222;-73
2023/09/06 12:26:01;;;;;;;4.00;3.70;;;26.70;99.10;;;;;;4945272;28;20488;-73
2023/09/06 12:28:31;;;;;;;4.83;4.10;;;26.50;98.60;;;;;;4945544;28;20488;-73
2023/09/06 12:31:02;;;;;;;4.40;4.00;;;26.80;99.10;;;;;;4946944;28;20491;-74
2023/09/06 12:33:28;;;;;;;4.77;4.37;;;27.30;98.70;;;;;;4941170;28;20477;-73
2023/09/06 12:36:01;;;;;;;4.60;4.20;;;27.40;98.10;;;;;;4946549;28;20230;-74
2023/09/06 12:38:31;;;;;;;4.55;4.13;;;27.50;98.50;;;;;;4943136;28;20373;-74
2023/09/06 12:40:58;;;;;;;4.20;3.90;;;27.80;98.50;;;;;;4946108;28;20226;-73
2023/09/06 12:43:25;;;;;;;4.85;4.45;;;27.60;97.90;;;;;;4931702;28;20264;-74
2023/09/06 12:45:53;;;;;;;4.40;4.00;;;27.60;98.00;;;;;;4962003;28;20465;-74
2023/09/06 12:48:23;;;;;;;4.82;4.43;;;27.90;98.60;;;;;;4941624;28;20233;-72
2023/09/06 12:50:50;;;;;;;4.68;4.28;;;27.80;97.80;;;;;;4945620;28;20712;-74
2023/09/06 12:53:16;;;;;;;4.88;4.50;;;28.00;98.00;;;;;;4944047;28;20308;-75
2023/09/06 12:55:42;;;;;;;4.45;4.13;;;27.90;97.60;;;;;;4942304;28;20308;-75